Time;durP1;ratioP1;P1;durP2;ratioP2;P2;SDS_P1;SDS_P2;PMS_P1;PMS_P2;Temp;Humidity;BMP_temperature;BMP_pressure;BME280_temperature;BME280_humidity;BME280_pressure;Samples;Min_cycle;Max_cycle;Signal;HPM_P1;HPM_P2
2023/01/10 00:01:56;;;;;;;0.10;0.10;;;6.50;99.90;;;;;;5062303;28;20192;-80
2023/01/10 00:04:22;;;;;;;0.10;0.10;;;6.50;99.90;;;;;;5062163;28;20291;-81
2023/01/10 00:06:48;;;;;;;0.10;0.10;;;6.60;99.90;;;;;;5060236;28;20185;-81
2023/01/10 00:09:13;;;;;;;0.10;0.10;;;6.50;99.90;;;;;;5062847;28;20235;-81
2023/01/10 00:14:27;;;;;;;0.10;0.10;;;6.50;99.90;;;;;;5062626;28;20181;-81
2023/01/10 00:16:52;;;;;;;0.10;0.10;;;6.60;99.90;;;;;;5063070;28;20174;-81
2023/01/10 00:19:18;;;;;;;0.10;0.10;;;6.60;99.90;;;;;;5062582;28;20217;-80
2023/01/10 00:21:43;;;;;;;0.10;0.10;;;6.50;99.90;;;;;;5063382;28;20181;-81
2023/01/10 00:24:19;;;;;;;0.10;0.10;;;6.50;99.90;;;;;;5064089;28;20269;-81
2023/01/10 00:26:49;;;;;;;0.10;0.10;;;6.40;99.90;;;;;;5060117;28;20654;-81
2023/01/10 00:29:16;;;;;;;0.10;0.10;;;6.40;99.90;;;;;;5063349;28;20782;-81
2023/01/10 00:31:42;;;;;;;0.10;0.10;;;6.30;99.90;;;;;;5063342;28;20633;-81
2023/01/10 00:34:07;;;;;;;0.10;0.10;;;6.20;99.90;;;;;;5063740;28;20221;-81
2023/01/10 00:36:33;;;;;;;0.10;0.10;;;6.20;99.90;;;;;;5063667;28;20277;-80
2023/01/10 00:38:58;;;;;;;0.10;0.10;;;6.10;99.90;;;;;;5062200;28;20191;-81
2023/01/10 00:44:08;;;;;;;0.10;0.10;;;6.10;99.90;;;;;;5061204;28;20229;-81
2023/01/10 00:46:33;;;;;;;0.10;0.10;;;6.00;99.90;;;;;;5062896;28;21054;-81
2023/01/10 00:48:59;;;;;;;0.10;0.10;;;6.10;99.90;;;;;;5063748;28;20848;-81
2023/01/10 00:51:24;;;;;;;0.10;0.10;;;6.10;99.90;;;;;;5065536;28;20193;-81
2023/01/10 00:53:50;;;;;;;0.10;0.10;;;6.00;99.90;;;;;;5062711;28;20184;-80
2023/01/10 00:56:15;;;;;;;0.10;0.10;;;6.00;99.90;;;;;;5066422;28;20201;-81
2023/01/10 00:58:43;;;;;;;0.10;0.10;;;5.90;99.90;;;;;;5063640;28;20216;-82
2023/01/10 01:01:09;;;;;;;0.10;0.10;;;5.90;99.90;;;;;;5062962;28;20232;-81
2023/01/10 01:03:34;;;;;;;0.10;0.10;;;5.80;99.90;;;;;;5065742;28;20234;-81
2023/01/10 01:06:03;;;;;;;0.10;0.10;;;5.80;99.90;;;;;;5067378;28;20201;-81
2023/01/10 01:08:29;;;;;;;0.10;0.10;;;5.70;99.90;;;;;;5067292;28;20196;-81
2023/01/10 01:10:54;;;;;;;0.10;0.10;;;5.70;99.90;;;;;;5067986;28;20186;-81
2023/01/10 01:13:21;;;;;;;0.10;0.10;;;5.80;99.90;;;;;;5064107;28;20277;-81
2023/01/10 01:15:47;;;;;;;0.10;0.10;;;5.80;99.90;;;;;;5067760;28;20215;-81
2023/01/10 01:18:16;;;;;;;0.10;0.10;;;5.80;99.90;;;;;;5066989;28;20197;-81
2023/01/10 01:20:42;;;;;;;0.10;0.10;;;5.90;99.90;;;;;;5061435;28;20686;-81
2023/01/10 01:23:07;;;;;;;0.10;0.10;;;5.90;99.90;;;;;;5064002;28;20191;-81
2023/01/10 01:25:33;;;;;;;0.10;0.10;;;6.00;99.90;;;;;;5066248;28;20200;-80
2023/01/10 01:27:59;;;;;;;0.10;0.10;;;6.00;99.90;;;;;;5063320;28;20310;-80
2023/01/10 01:30:24;;;;;;;0.10;0.10;;;6.00;99.90;;;;;;5066108;28;20184;-81
2023/01/10 01:32:50;;;;;;;0.00;0.00;;;5.90;99.90;;;;;;5064681;28;21188;-80
2023/01/10 01:35:16;;;;;;;0.10;0.10;;;5.90;99.90;;;;;;5064540;28;20224;-81
2023/01/10 01:37:42;;;;;;;0.10;0.10;;;5.90;99.90;;;;;;5066585;28;20221;-81
2023/01/10 01:40:20;;;;;;;0.10;0.10;;;5.80;99.90;;;;;;5065756;28;20767;-81
2023/01/10 01:42:46;;;;;;;0.10;0.10;;;5.70;99.90;;;;;;5064928;28;20239;-81
2023/01/10 01:45:37;;;;;;;0.00;0.00;;;5.70;99.90;;;;;;5062429;28;20748;-80
2023/01/10 01:48:11;;;;;;;0.00;0.00;;;5.70;99.90;;;;;;5065546;28;20656;-80
2023/01/10 01:50:39;;;;;;;0.10;0.10;;;5.80;99.90;;;;;;5062715;28;20196;-80
2023/01/10 01:53:12;;;;;;;0.10;0.10;;;5.90;99.90;;;;;;5062383;28;20800;-80
2023/01/10 01:55:38;;;;;;;0.10;0.10;;;5.90;99.90;;;;;;5064213;28;20204;-79
2023/01/10 01:58:12;;;;;;;0.10;0.10;;;6.00;99.90;;;;;;5064529;28;20560;-80
2023/01/10 02:00:37;;;;;;;0.10;0.10;;;6.10;99.90;;;;;;5061005;28;20213;-81
2023/01/10 02:03:05;;;;;;;0.10;0.10;;;6.00;99.90;;;;;;5064980;28;20600;-81
2023/01/10 02:05:32;;;;;;;0.10;0.10;;;6.10;99.90;;;;;;5063552;28;20760;-80
2023/01/10 02:08:01;;;;;;;0.10;0.10;;;6.10;99.90;;;;;;5063240;28;20182;-80
2023/01/10 02:10:53;;;;;;;0.00;0.00;;;6.10;99.90;;;;;;5063646;28;20707;-80
2023/01/10 02:13:23;;;;;;;0.10;0.10;;;6.10;99.90;;;;;;5063001;28;20189;-81
2023/01/10 02:15:49;;;;;;;0.10;0.10;;;6.00;99.90;;;;;;5063493;28;20257;-81
2023/01/10 02:18:15;;;;;;;0.10;0.10;;;6.00;99.90;;;;;;5063668;28;20189;-80
2023/01/10 02:21:09;;;;;;;0.10;0.10;;;6.00;99.90;;;;;;5063305;28;20279;-81
2023/01/10 02:24:08;;;;;;;0.10;0.10;;;6.00;99.90;;;;;;5062925;28;20203;-80
2023/01/10 02:26:55;;;;;;;0.10;0.10;;;5.90;99.90;;;;;;5062615;28;20188;-80
2023/01/10 02:29:42;;;;;;;0.10;0.10;;;5.90;99.90;;;;;;5063743;28;20188;-81
2023/01/10 02:32:25;;;;;;;0.10;0.10;;;5.80;99.90;;;;;;5063993;28;20169;-79
2023/01/10 02:35:17;;;;;;;0.00;0.00;;;5.70;99.90;;;;;;5064105;28;20295;-80
2023/01/10 02:38:09;;;;;;;0.10;0.10;;;5.60;99.90;;;;;;5063276;28;20187;-80
2023/01/10 02:40:50;;;;;;;0.10;0.10;;;5.50;99.90;;;;;;5062203;28;20213;-80
2023/01/10 02:43:19;;;;;;;0.10;0.10;;;5.60;99.90;;;;;;5062743;28;20192;-80
2023/01/10 02:46:01;;;;;;;0.00;0.00;;;5.50;99.90;;;;;;5062815;28;20209;-80
2023/01/10 02:48:27;;;;;;;0.10;0.10;;;5.50;99.90;;;;;;5063530;28;20179;-80
2023/01/10 02:51:00;;;;;;;0.10;0.10;;;5.40;99.90;;;;;;5063599;28;20197;-80
2023/01/10 02:53:34;;;;;;;0.10;0.10;;;5.40;99.90;;;;;;5062589;28;20192;-80
2023/01/10 02:56:23;;;;;;;0.10;0.10;;;5.40;99.90;;;;;;5063661;28;20204;-80
2023/01/10 02:59:24;;;;;;;0.10;0.10;;;5.40;99.90;;;;;;5060938;28;20232;-81
2023/01/10 03:02:11;;;;;;;0.10;0.10;;;5.40;99.90;;;;;;5061755;28;20177;-80
2023/01/10 03:05:19;;;;;;;0.10;0.10;;;5.40;99.90;;;;;;5063950;28;20208;-81
2023/01/10 03:08:09;;;;;;;0.10;0.10;;;5.50;99.90;;;;;;5062698;28;20181;-80
2023/01/10 03:10:45;;;;;;;0.10;0.10;;;5.40;99.90;;;;;;5063589;28;20177;-81
2023/01/10 03:13:25;;;;;;;0.10;0.10;;;5.40;99.90;;;;;;5061811;28;20181;-80
2023/01/10 03:15:53;;;;;;;0.10;0.10;;;5.40;99.90;;;;;;5063399;28;20198;-80
2023/01/10 03:18:30;;;;;;;0.10;0.10;;;5.30;99.90;;;;;;5066536;28;20183;-80
2023/01/10 03:20:58;;;;;;;0.10;0.10;;;5.20;99.90;;;;;;5061584;28;20308;-81
2023/01/10 03:23:24;;;;;;;0.10;0.10;;;5.20;99.90;;;;;;5062900;28;20218;-80
2023/01/10 03:25:54;;;;;;;0.10;0.10;;;5.10;99.90;;;;;;5062541;28;20199;-81
2023/01/10 03:28:28;;;;;;;0.10;0.10;;;5.10;99.90;;;;;;5064402;28;20185;-81
2023/01/10 03:31:02;;;;;;;0.10;0.10;;;5.20;99.90;;;;;;5064214;28;20184;-80
2023/01/10 03:33:30;;;;;;;0.10;0.10;;;5.40;99.90;;;;;;5064522;28;20191;-81
2023/01/10 03:36:01;;;;;;;0.10;0.10;;;5.50;99.90;;;;;;5063057;28;20241;-80
2023/01/10 03:38:45;;;;;;;0.07;0.07;;;5.60;99.90;;;;;;5064675;28;20237;-80
2023/01/10 03:41:20;;;;;;;0.10;0.10;;;5.70;99.90;;;;;;5062119;28;20231;-81
2023/01/10 03:47:06;;;;;;;0.10;0.10;;;5.80;99.90;;;;;;5064708;28;20665;-80
2023/01/10 03:49:34;;;;;;;0.10;0.10;;;5.80;99.90;;;;;;5061586;28;20288;-81
2023/01/10 03:52:02;;;;;;;0.00;0.00;;;5.70;99.90;;;;;;5062635;28;20228;-80
2023/01/10 03:54:27;;;;;;;0.10;0.10;;;5.70;99.90;;;;;;5061501;28;20193;-81
2023/01/10 03:56:53;;;;;;;0.00;0.00;;;5.60;99.90;;;;;;5061665;28;20207;-81
2023/01/10 03:59:23;;;;;;;0.10;0.10;;;5.60;99.90;;;;;;5063054;28;20215;-81
2023/01/10 04:01:49;;;;;;;0.10;0.10;;;5.60;99.90;;;;;;5061925;28;20181;-80
2023/01/10 04:04:14;;;;;;;0.00;0.00;;;5.60;99.90;;;;;;5061665;28;20185;-80
2023/01/10 04:06:40;;;;;;;0.10;0.10;;;5.60;99.90;;;;;;5060874;28;20675;-80
2023/01/10 04:09:06;;;;;;;0.10;0.10;;;5.60;99.90;;;;;;5063229;28;20203;-81
2023/01/10 04:11:32;;;;;;;0.10;0.10;;;5.60;99.90;;;;;;5061490;28;20185;-80
2023/01/10 04:13:57;;;;;;;0.10;0.10;;;5.70;99.90;;;;;;5058666;28;20594;-80
2023/01/10 04:16:23;;;;;;;0.10;0.10;;;5.70;99.90;;;;;;5066174;28;20205;-80
2023/01/10 04:18:48;;;;;;;0.10;0.10;;;5.70;99.90;;;;;;5061360;28;20180;-81
2023/01/10 04:21:14;;;;;;;0.10;0.10;;;5.70;99.90;;;;;;5061322;28;20197;-80
2023/01/10 04:23:39;;;;;;;0.10;0.10;;;5.70;99.90;;;;;;5062685;28;20204;-80
2023/01/10 04:26:05;;;;;;;0.10;0.10;;;5.70;99.90;;;;;;5060382;28;20288;-81
2023/01/10 04:28:30;;;;;;;0.10;0.10;;;5.70;99.90;;;;;;5061341;28;20290;-80
2023/01/10 04:30:56;;;;;;;0.10;0.10;;;5.60;99.90;;;;;;5063795;28;20192;-80
2023/01/10 04:33:21;;;;;;;0.10;0.10;;;5.60;99.90;;;;;;5062834;28;20189;-81
2023/01/10 04:35:48;;;;;;;0.10;0.10;;;5.60;99.90;;;;;;5062110;28;20232;-81
2023/01/10 04:38:15;;;;;;;0.10;0.10;;;5.60;99.90;;;;;;5066433;28;20196;-81
2023/01/10 04:40:41;;;;;;;0.00;0.00;;;5.70;99.90;;;;;;5066393;28;20239;-81
2023/01/10 04:43:07;;;;;;;0.10;0.10;;;5.70;99.90;;;;;;5065006;28;20192;-80
2023/01/10 04:45:32;;;;;;;0.10;0.10;;;5.70;99.90;;;;;;5065004;28;20701;-80
2023/01/10 04:47:59;;;;;;;0.10;0.10;;;5.80;99.90;;;;;;5065993;28;20188;-80
2023/01/10 04:50:25;;;;;;;0.10;0.10;;;5.80;99.90;;;;;;5065776;28;20189;-80
2023/01/10 04:52:51;;;;;;;0.10;0.10;;;5.80;99.90;;;;;;5064413;28;20248;-81
2023/01/10 04:55:17;;;;;;;0.07;0.07;;;5.80;99.90;;;;;;5064771;28;20232;-80
2023/01/10 04:57:43;;;;;;;0.10;0.10;;;5.90;99.90;;;;;;5064871;28;20221;-80
2023/01/10 05:00:09;;;;;;;0.10;0.10;;;5.90;99.90;;;;;;5062369;28;20213;-80
2023/01/10 05:02:34;;;;;;;0.10;0.10;;;5.90;99.90;;;;;;5066256;28;20185;-81
2023/01/10 05:05:00;;;;;;;0.00;0.00;;;5.90;99.90;;;;;;5065542;28;20216;-80
2023/01/10 05:07:26;;;;;;;0.10;0.10;;;5.90;99.90;;;;;;5066437;28;20237;-81
2023/01/10 05:09:51;;;;;;;0.10;0.10;;;5.90;99.90;;;;;;5068044;28;20236;-79
2023/01/10 05:12:17;;;;;;;0.07;0.07;;;5.90;99.90;;;;;;5066862;28;20716;-80
2023/01/10 05:14:42;;;;;;;0.10;0.10;;;5.90;99.90;;;;;;5064263;28;20216;-80
2023/01/10 05:17:08;;;;;;;0.10;0.10;;;5.90;99.90;;;;;;5067838;28;20258;-81
2023/01/10 05:19:33;;;;;;;0.10;0.10;;;5.90;99.90;;;;;;5064740;28;20209;-80
2023/01/10 05:21:59;;;;;;;0.10;0.10;;;5.90;99.90;;;;;;5064487;28;20190;-80
2023/01/10 05:24:24;;;;;;;0.10;0.10;;;5.80;99.90;;;;;;5065225;28;20276;-80
2023/01/10 05:26:50;;;;;;;0.10;0.10;;;5.80;99.90;;;;;;5064169;28;20656;-81
2023/01/10 05:29:15;;;;;;;0.03;0.03;;;5.80;99.90;;;;;;5063305;28;20242;-81
2023/01/10 05:31:41;;;;;;;0.10;0.10;;;5.80;99.90;;;;;;5066185;28;20177;-79
2023/01/10 05:34:09;;;;;;;0.10;0.10;;;5.80;99.90;;;;;;5065008;28;20181;-81
2023/01/10 05:36:35;;;;;;;0.10;0.10;;;5.80;99.90;;;;;;5065793;28;20734;-80
2023/01/10 05:39:00;;;;;;;0.10;0.10;;;5.80;99.90;;;;;;5066468;28;20274;-80
2023/01/10 05:41:26;;;;;;;0.10;0.10;;;5.80;99.90;;;;;;5063610;28;20344;-81
2023/01/10 05:43:51;;;;;;;0.10;0.10;;;5.70;99.90;;;;;;5063975;28;20282;-80
2023/01/10 05:46:17;;;;;;;0.10;0.10;;;5.60;99.90;;;;;;5065075;28;20329;-81
2023/01/10 05:48:42;;;;;;;0.10;0.10;;;5.60;99.90;;;;;;5066542;28;20188;-81
2023/01/10 05:51:08;;;;;;;0.10;0.10;;;5.50;99.90;;;;;;5064523;28;20238;-81
2023/01/10 05:53:33;;;;;;;0.10;0.10;;;5.50;99.90;;;;;;5065591;28;20605;-81
2023/01/10 05:56:01;;;;;;;0.10;0.10;;;5.60;99.90;;;;;;5064098;28;20210;-81
2023/01/10 05:58:28;;;;;;;0.10;0.10;;;5.60;99.90;;;;;;5064707;28;20201;-81
2023/01/10 06:00:54;;;;;;;0.10;0.10;;;5.60;99.90;;;;;;5063600;28;20205;-81
2023/01/10 06:03:20;;;;;;;0.10;0.10;;;5.60;99.90;;;;;;5066967;28;20659;-81
2023/01/10 06:05:46;;;;;;;0.10;0.10;;;5.60;99.90;;;;;;5065326;28;20258;-81
2023/01/10 06:08:11;;;;;;;0.10;0.10;;;5.60;99.90;;;;;;5063746;28;20174;-81
2023/01/10 06:10:37;;;;;;;0.10;0.10;;;5.50;99.90;;;;;;5065656;28;20188;-81
2023/01/10 06:13:04;;;;;;;0.10;0.10;;;5.50;99.90;;;;;;5068925;28;20185;-81
2023/01/10 06:15:29;;;;;;;0.10;0.10;;;5.40;99.90;;;;;;5065541;28;20209;-81
2023/01/10 06:17:55;;;;;;;0.10;0.10;;;5.40;99.90;;;;;;5064016;28;20200;-82
2023/01/10 06:20:20;;;;;;;0.10;0.10;;;5.30;99.90;;;;;;5065689;28;20213;-80
2023/01/10 06:22:46;;;;;;;0.10;0.10;;;5.30;99.90;;;;;;5066209;28;20269;-81
2023/01/10 06:25:12;;;;;;;0.10;0.10;;;5.20;99.90;;;;;;5063685;28;20200;-81
2023/01/10 06:27:40;;;;;;;0.10;0.10;;;5.20;99.90;;;;;;5064350;28;20210;-80
2023/01/10 06:30:06;;;;;;;0.10;0.10;;;5.10;99.90;;;;;;5067033;28;20235;-81
2023/01/10 06:32:32;;;;;;;0.10;0.10;;;5.00;99.90;;;;;;5064567;28;20203;-81
2023/01/10 06:34:57;;;;;;;0.03;0.03;;;5.00;99.90;;;;;;5067706;28;20606;-81
2023/01/10 06:37:23;;;;;;;0.10;0.10;;;5.00;99.90;;;;;;5066549;28;20181;-80
2023/01/10 06:39:50;;;;;;;0.10;0.10;;;5.00;99.90;;;;;;5063724;28;20216;-80
2023/01/10 06:42:15;;;;;;;0.10;0.10;;;5.00;99.90;;;;;;5061934;28;20177;-81
2023/01/10 06:44:41;;;;;;;0.10;0.10;;;5.00;99.90;;;;;;5062944;28;20630;-82
2023/01/10 06:47:06;;;;;;;0.10;0.10;;;4.90;99.90;;;;;;5063826;28;20177;-82
2023/01/10 06:49:32;;;;;;;0.10;0.10;;;4.90;99.90;;;;;;5067877;28;20187;-82
2023/01/10 06:51:57;;;;;;;0.07;0.07;;;4.90;99.90;;;;;;5065702;28;20185;-82
2023/01/10 06:54:23;;;;;;;0.07;0.07;;;4.90;99.90;;;;;;5061205;28;20207;-82
2023/01/10 06:56:48;;;;;;;0.10;0.10;;;4.90;99.90;;;;;;5063072;28;20184;-82
2023/01/10 06:59:14;;;;;;;0.10;0.10;;;4.90;99.90;;;;;;5064694;28;20295;-82
2023/01/10 07:01:40;;;;;;;0.10;0.10;;;4.90;99.90;;;;;;5065918;28;20242;-82
2023/01/10 07:04:05;;;;;;;0.00;0.00;;;4.90;99.90;;;;;;5066803;28;20188;-82
2023/01/10 07:06:36;;;;;;;0.10;0.10;;;4.80;99.90;;;;;;5064127;28;20212;-80
2023/01/10 07:09:02;;;;;;;0.10;0.10;;;4.80;99.90;;;;;;5061258;28;20182;-80
2023/01/10 07:11:28;;;;;;;0.10;0.10;;;4.80;99.90;;;;;;5062117;28;20220;-80
2023/01/10 07:13:54;;;;;;;0.10;0.10;;;4.80;99.90;;;;;;5062968;28;20199;-81
2023/01/10 07:16:19;;;;;;;0.07;0.07;;;4.80;99.90;;;;;;5063668;28;20213;-80
2023/01/10 07:18:45;;;;;;;0.10;0.10;;;4.80;99.90;;;;;;5065418;28;20217;-80
2023/01/10 07:21:11;;;;;;;0.10;0.10;;;4.90;99.90;;;;;;5062338;28;20230;-80
2023/01/10 07:23:37;;;;;;;0.10;0.10;;;4.90;99.90;;;;;;5063709;28;20177;-81
2023/01/10 07:26:05;;;;;;;0.10;0.10;;;5.00;99.90;;;;;;5064514;28;20208;-80
2023/01/10 07:28:33;;;;;;;0.10;0.10;;;5.00;99.90;;;;;;5065120;28;20266;-81
2023/01/10 07:30:59;;;;;;;0.10;0.10;;;5.00;99.90;;;;;;5063261;28;20546;-80
2023/01/10 07:33:26;;;;;;;0.10;0.10;;;5.00;99.90;;;;;;5061175;28;20185;-80
2023/01/10 07:35:51;;;;;;;0.10;0.10;;;5.00;99.90;;;;;;5063385;28;20213;-80
2023/01/10 07:38:17;;;;;;;0.10;0.10;;;5.10;99.90;;;;;;5061130;28;20203;-80
2023/01/10 07:40:43;;;;;;;0.10;0.10;;;5.10;99.90;;;;;;5060854;28;20289;-80
2023/01/10 07:43:08;;;;;;;0.10;0.10;;;5.20;99.90;;;;;;5061922;28;20654;-80
2023/01/10 07:45:34;;;;;;;0.10;0.10;;;5.20;99.90;;;;;;5062021;28;20197;-80
2023/01/10 07:48:02;;;;;;;0.10;0.10;;;5.30;99.90;;;;;;5064267;28;20177;-80
2023/01/10 07:50:31;;;;;;;0.10;0.10;;;5.40;99.90;;;;;;5063646;28;20771;-80
2023/01/10 07:52:58;;;;;;;0.10;0.10;;;5.50;99.90;;;;;;5063834;28;20203;-80
2023/01/10 07:55:24;;;;;;;0.10;0.10;;;5.50;99.90;;;;;;5063782;28;20300;-79
2023/01/10 07:57:50;;;;;;;0.10;0.10;;;5.70;99.90;;;;;;5062258;28;20185;-84
2023/01/10 08:00:17;;;;;;;0.10;0.10;;;5.90;99.90;;;;;;5061647;28;20232;-80
2023/01/10 08:02:42;;;;;;;0.10;0.10;;;6.10;99.90;;;;;;5059279;28;20193;-81
2023/01/10 08:05:08;;;;;;;0.10;0.10;;;6.20;99.90;;;;;;5060288;28;20197;-81
2023/01/10 08:07:34;;;;;;;0.10;0.10;;;6.30;99.90;;;;;;5066003;28;20235;-82
2023/01/10 08:09:59;;;;;;;0.00;0.00;;;6.40;99.90;;;;;;5068094;28;20192;-82
2023/01/10 08:12:25;;;;;;;0.10;0.10;;;6.50;99.90;;;;;;5066534;28;20232;-88
2023/01/10 08:14:51;;;;;;;0.10;0.10;;;6.50;99.90;;;;;;5059095;28;20712;-81
2023/01/10 08:17:17;;;;;;;0.00;0.00;;;6.50;99.90;;;;;;5058266;28;20201;-81
2023/01/10 08:19:44;;;;;;;0.10;0.10;;;6.60;99.90;;;;;;5057859;28;20772;-82
2023/01/10 08:22:09;;;;;;;0.10;0.10;;;6.60;99.90;;;;;;5056901;28;20262;-80
2023/01/10 08:24:35;;;;;;;0.10;0.10;;;6.70;99.90;;;;;;5061498;28;20204;-81
2023/01/10 08:27:01;;;;;;;0.10;0.10;;;6.70;99.90;;;;;;5062826;28;20199;-81
2023/01/10 08:29:27;;;;;;;0.10;0.10;;;6.50;99.90;;;;;;5062995;28;20194;-81
2023/01/10 08:31:53;;;;;;;0.10;0.10;;;6.60;99.90;;;;;;5064649;28;20212;-81
2023/01/10 08:34:19;;;;;;;0.10;0.10;;;6.80;99.90;;;;;;5066685;28;20222;-81
2023/01/10 08:36:45;;;;;;;0.10;0.10;;;6.90;99.90;;;;;;5065479;28;20216;-81
2023/01/10 08:39:11;;;;;;;0.10;0.10;;;7.00;99.90;;;;;;5065091;28;20182;-81
2023/01/10 08:41:38;;;;;;;0.10;0.10;;;7.00;99.90;;;;;;5065624;28;20212;-81
2023/01/10 08:44:04;;;;;;;0.10;0.10;;;7.00;99.90;;;;;;5064772;28;20177;-80
2023/01/10 08:46:30;;;;;;;0.10;0.10;;;7.10;99.90;;;;;;5066142;28;20200;-81
2023/01/10 08:48:55;;;;;;;0.10;0.10;;;7.10;99.90;;;;;;5064862;28;20172;-80
2023/01/10 08:51:21;;;;;;;0.10;0.10;;;7.10;99.90;;;;;;5065845;28;20186;-81
2023/01/10 08:53:47;;;;;;;0.10;0.10;;;7.20;99.90;;;;;;5064873;28;20187;-81
2023/01/10 08:56:12;;;;;;;0.10;0.10;;;7.20;99.90;;;;;;5066164;28;20220;-81
2023/01/10 08:58:38;;;;;;;0.10;0.10;;;7.20;99.90;;;;;;5065567;28;20288;-81
2023/01/10 09:01:08;;;;;;;0.10;0.10;;;7.20;99.90;;;;;;5065790;28;20232;-81
2023/01/10 09:03:34;;;;;;;0.00;0.00;;;7.10;99.90;;;;;;5064740;28;20210;-81
2023/01/10 09:06:00;;;;;;;0.10;0.10;;;7.20;99.90;;;;;;5066211;28;20280;-81
2023/01/10 09:08:26;;;;;;;0.10;0.10;;;7.40;99.90;;;;;;5065588;28;20540;-81
2023/01/10 09:10:52;;;;;;;0.10;0.10;;;7.50;99.90;;;;;;5060182;28;20194;-81
2023/01/10 09:13:17;;;;;;;0.10;0.10;;;7.50;99.90;;;;;;5054071;28;20206;-81
2023/01/10 09:15:43;;;;;;;0.10;0.10;;;7.60;99.90;;;;;;5060576;28;20274;-80
2023/01/10 09:18:11;;;;;;;0.10;0.10;;;7.50;99.90;;;;;;5060664;28;20185;-81
2023/01/10 09:20:38;;;;;;;0.10;0.10;;;7.50;99.90;;;;;;5058618;28;20623;-82
2023/01/10 09:23:17;;;;;;;0.00;0.00;;;7.40;99.90;;;;;;5063750;28;20281;-83
2023/01/10 09:25:43;;;;;;;0.10;0.10;;;7.50;99.90;;;;;;5064214;28;20231;-81
2023/01/10 09:28:09;;;;;;;0.00;0.00;;;7.50;99.90;;;;;;5062658;28;20181;-81
2023/01/10 09:30:35;;;;;;;0.10;0.10;;;7.60;99.90;;;;;;5068016;28;20197;-83
2023/01/10 09:33:01;;;;;;;0.10;0.10;;;7.70;99.90;;;;;;5067469;28;20269;-82
2023/01/10 09:35:29;;;;;;;0.07;0.07;;;7.80;99.90;;;;;;5062753;28;20219;-82
2023/01/10 09:38:00;;;;;;;0.10;0.10;;;8.00;99.90;;;;;;5063539;28;20191;-82
2023/01/10 09:40:28;;;;;;;0.10;0.10;;;8.10;99.90;;;;;;5065763;28;20216;-82
2023/01/10 09:43:07;;;;;;;0.10;0.10;;;8.20;99.90;;;;;;5064800;28;20250;-82
2023/01/10 09:45:58;;;;;;;0.10;0.10;;;8.30;99.90;;;;;;5051095;28;20224;-82
2023/01/10 09:48:36;;;;;;;0.10;0.10;;;8.40;99.90;;;;;;5066229;28;20190;-82
2023/01/10 09:51:08;;;;;;;0.00;0.00;;;8.50;99.90;;;;;;5064251;28;20188;-82
2023/01/10 09:53:39;;;;;;;0.10;0.10;;;8.60;99.90;;;;;;5065220;28;20323;-82
2023/01/10 09:56:06;;;;;;;0.10;0.10;;;8.70;99.90;;;;;;5064142;28;20208;-82
2023/01/10 09:58:35;;;;;;;0.10;0.10;;;8.90;99.90;;;;;;5065432;28;20196;-82
2023/01/10 10:01:16;;;;;;;0.10;0.10;;;8.90;99.90;;;;;;5061277;28;20219;-82
2023/01/10 10:04:04;;;;;;;0.10;0.10;;;8.90;99.90;;;;;;5063990;28;20192;-82
2023/01/10 10:06:29;;;;;;;0.10;0.10;;;9.00;99.90;;;;;;5062301;28;20209;-82
2023/01/10 10:08:56;;;;;;;0.07;0.07;;;9.10;99.90;;;;;;5062015;28;20252;-81
2023/01/10 10:11:37;;;;;;;0.10;0.10;;;9.10;99.90;;;;;;5061671;28;20198;-82
2023/01/10 10:14:20;;;;;;;0.10;0.10;;;9.20;99.90;;;;;;5061618;28;20700;-81
2023/01/10 10:17:19;;;;;;;0.10;0.10;;;9.30;99.90;;;;;;5063036;28;20184;-81
2023/01/10 10:20:20;;;;;;;0.10;0.10;;;9.20;99.90;;;;;;5061678;28;20299;-80
2023/01/10 10:23:29;;;;;;;0.10;0.10;;;9.30;99.90;;;;;;5046988;28;20270;-81
2023/01/10 10:26:18;;;;;;;0.10;0.10;;;9.40;99.90;;;;;;5062438;28;20299;-80
2023/01/10 10:28:59;;;;;;;0.10;0.10;;;9.20;99.90;;;;;;5064623;28;20275;-81
2023/01/10 10:31:30;;;;;;;0.10;0.10;;;9.10;99.90;;;;;;5063332;28;20190;-81
2023/01/10 10:34:19;;;;;;;0.00;0.00;;;8.90;99.90;;;;;;5062493;28;20195;-81
2023/01/10 10:36:51;;;;;;;0.03;0.03;;;9.00;99.90;;;;;;5064173;28;20192;-80
2023/01/10 10:39:38;;;;;;;0.00;0.00;;;8.80;99.90;;;;;;5062459;28;20220;-81
2023/01/10 10:42:09;;;;;;;0.10;0.10;;;8.80;99.90;;;;;;5065610;28;20194;-81
2023/01/10 10:44:56;;;;;;;0.10;0.10;;;8.60;99.90;;;;;;5063339;28;20214;-80
2023/01/10 10:47:26;;;;;;;0.10;0.10;;;8.60;99.90;;;;;;5060720;28;20200;-81
2023/01/10 10:49:56;;;;;;;0.10;0.10;;;8.50;99.90;;;;;;5059611;28;20187;-80
2023/01/10 10:52:30;;;;;;;0.00;0.00;;;8.40;99.90;;;;;;5060582;28;20867;-81
2023/01/10 10:54:57;;;;;;;0.10;0.10;;;8.30;99.90;;;;;;5060480;28;20621;-81
2023/01/10 10:57:26;;;;;;;0.00;0.00;;;8.40;99.90;;;;;;5060970;28;20206;-82
2023/01/10 10:59:52;;;;;;;0.10;0.10;;;8.40;99.90;;;;;;5059163;28;20949;-82
2023/01/10 11:02:37;;;;;;;0.10;0.10;;;8.40;99.90;;;;;;5059704;28;20200;-81
2023/01/10 11:05:07;;;;;;;0.10;0.10;;;8.40;99.90;;;;;;5062225;28;20211;-82
2023/01/10 11:07:35;;;;;;;0.10;0.10;;;8.40;99.90;;;;;;5051713;28;20710;-82
2023/01/10 11:12:59;;;;;;;0.10;0.10;;;8.40;99.90;;;;;;5057620;28;20198;-81
2023/01/10 11:15:48;;;;;;;0.00;0.00;;;8.50;99.90;;;;;;5061602;28;20208;-81
2023/01/10 11:18:19;;;;;;;0.10;0.10;;;8.50;99.90;;;;;;5060776;28;20201;-81
2023/01/10 11:20:58;;;;;;;0.10;0.10;;;8.60;99.90;;;;;;5059369;28;20204;-81
2023/01/10 11:23:39;;;;;;;0.10;0.10;;;8.60;99.90;;;;;;5055647;28;20191;-80
2023/01/10 11:26:22;;;;;;;0.10;0.10;;;8.60;99.90;;;;;;5058219;28;20208;-81
2023/01/10 11:28:49;;;;;;;0.10;0.10;;;8.60;99.90;;;;;;5060890;28;20180;-80
2023/01/10 11:31:26;;;;;;;0.10;0.10;;;8.70;99.90;;;;;;5064495;28;20192;-80
2023/01/10 11:33:52;;;;;;;0.10;0.10;;;8.70;99.90;;;;;;5062156;28;20189;-80
2023/01/10 11:36:18;;;;;;;0.10;0.10;;;8.80;99.90;;;;;;5063260;28;20209;-81
2023/01/10 11:39:00;;;;;;;0.10;0.10;;;8.90;99.90;;;;;;5061923;28;20260;-80
2023/01/10 11:41:30;;;;;;;0.10;0.10;;;8.90;99.90;;;;;;5062612;28;20533;-80
2023/01/10 11:44:16;;;;;;;0.10;0.10;;;8.90;99.90;;;;;;5058529;28;20183;-81
2023/01/10 11:46:44;;;;;;;0.10;0.10;;;9.00;99.90;;;;;;5061945;28;20187;-81
2023/01/10 11:49:18;;;;;;;0.10;0.10;;;9.00;99.90;;;;;;5058895;28;20182;-80
2023/01/10 11:51:46;;;;;;;0.10;0.10;;;9.00;99.90;;;;;;5063530;28;20188;-80
2023/01/10 11:54:25;;;;;;;0.10;0.10;;;9.00;99.90;;;;;;5060201;28;20206;-81
2023/01/10 11:57:13;;;;;;;0.10;0.10;;;9.30;99.90;;;;;;5058372;28;20227;-81
2023/01/10 11:59:48;;;;;;;0.10;0.10;;;9.40;99.90;;;;;;5061763;28;20202;-82
2023/01/10 12:02:19;;;;;;;0.00;0.00;;;9.70;99.90;;;;;;5060562;28;20194;-81
2023/01/10 12:04:47;;;;;;;0.10;0.10;;;9.90;99.90;;;;;;5055969;28;20446;-82
2023/01/10 12:07:13;;;;;;;0.10;0.10;;;10.00;99.90;;;;;;5059955;28;20228;-82
2023/01/10 12:09:44;;;;;;;0.07;0.07;;;9.80;99.90;;;;;;5057752;28;20298;-81
2023/01/10 12:12:25;;;;;;;0.10;0.10;;;9.70;99.90;;;;;;5059836;28;20812;-81
2023/01/10 12:14:52;;;;;;;0.10;0.10;;;9.60;99.90;;;;;;5060518;28;20795;-81
2023/01/10 12:17:27;;;;;;;0.10;0.10;;;9.50;99.90;;;;;;5060232;28;20196;-82
2023/01/10 12:19:57;;;;;;;0.10;0.10;;;9.50;99.90;;;;;;5060393;28;20218;-82
2023/01/10 12:22:43;;;;;;;0.10;0.10;;;9.30;99.90;;;;;;5059940;28;20320;-82
2023/01/10 12:25:20;;;;;;;0.10;0.10;;;9.20;99.90;;;;;;5060568;28;20279;-82
2023/01/10 12:27:49;;;;;;;0.10;0.10;;;9.20;99.90;;;;;;5058483;28;20272;-81
2023/01/10 12:30:48;;;;;;;0.10;0.10;;;9.00;99.90;;;;;;5059971;28;21239;-82
2023/01/10 12:33:27;;;;;;;0.10;0.10;;;9.00;99.90;;;;;;5059997;28;20544;-82
2023/01/10 12:36:10;;;;;;;0.10;0.10;;;9.00;99.90;;;;;;5059629;28;20211;-81
2023/01/10 12:39:05;;;;;;;0.10;0.10;;;9.00;99.90;;;;;;5057675;28;20185;-82
2023/01/10 12:44:32;;;;;;;0.10;0.10;;;9.10;99.90;;;;;;5061678;28;20573;-81
2023/01/10 12:47:04;;;;;;;0.10;0.10;;;9.20;99.90;;;;;;5077202;28;20227;-81
2023/01/10 12:49:54;;;;;;;0.10;0.10;;;9.30;99.90;;;;;;5060068;28;20625;-81
2023/01/10 12:52:41;;;;;;;0.10;0.10;;;9.40;99.90;;;;;;5048395;28;20199;-81
2023/01/10 12:55:12;;;;;;;0.10;0.10;;;9.30;99.90;;;;;;5068152;28;20208;-81
2023/01/10 12:57:39;;;;;;;0.10;0.10;;;9.20;99.90;;;;;;5064075;28;20187;-81
2023/01/10 13:00:12;;;;;;;0.10;0.10;;;9.00;99.90;;;;;;5066199;28;20230;-81
2023/01/10 13:02:42;;;;;;;0.10;0.10;;;9.00;99.90;;;;;;5065172;28;20287;-81
2023/01/10 13:05:23;;;;;;;0.10;0.10;;;8.90;99.90;;;;;;5063081;28;20329;-81
2023/01/10 13:07:51;;;;;;;0.10;0.10;;;8.90;99.90;;;;;;5064178;28;20206;-80
2023/01/10 13:10:20;;;;;;;0.10;0.10;;;8.90;99.90;;;;;;5064427;28;20190;-80
2023/01/10 13:12:53;;;;;;;0.10;0.10;;;8.90;99.90;;;;;;5063412;28;20691;-80
2023/01/10 13:15:45;;;;;;;0.07;0.07;;;8.80;99.90;;;;;;5064556;28;20210;-80
2023/01/10 13:18:29;;;;;;;0.10;0.10;;;8.70;99.90;;;;;;5057527;28;21200;-80
2023/01/10 13:21:12;;;;;;;0.10;0.10;;;8.80;99.90;;;;;;5061019;28;20214;-80
2023/01/10 13:23:48;;;;;;;0.10;0.10;;;8.80;99.90;;;;;;5061260;28;20188;-80
2023/01/10 13:26:14;;;;;;;0.10;0.10;;;8.80;99.90;;;;;;5063165;28;20218;-80
2023/01/10 13:28:53;;;;;;;0.10;0.10;;;8.70;99.90;;;;;;5065473;28;20193;-80
2023/01/10 13:31:33;;;;;;;0.10;0.10;;;8.70;99.90;;;;;;5067307;28;20194;-81